createdAt,value
2022-12-23T14:00:36.945Z,100029.84
2022-12-23T14:03:13.825Z,100026.19
2022-12-23T14:05:50.755Z,100012.59
2022-12-23T14:08:32.190Z,100014.03
2022-12-23T14:11:04.617Z,100012.47
2022-12-23T14:14:18.169Z,100011.09
2022-12-23T14:17:14.671Z,100002.97
2022-12-23T14:20:14.762Z,100008.44
2022-12-23T14:23:17.801Z,100005.78
2022-12-23T14:26:21.307Z,99988.69
2022-12-23T14:29:45.071Z,100008.59
2022-12-23T14:32:42.418Z,99981.50
2022-12-23T14:35:42.143Z,100007.88
2022-12-23T14:38:16.686Z,100001.72
2022-12-23T14:40:53.665Z,100008.72
2022-12-23T14:43:26.628Z,100003.53
2022-12-23T14:46:10.541Z,99984.31
2022-12-23T14:49:37.606Z,99998.03
2022-12-23T14:52:07.890Z,100004.63
2022-12-23T14:54:55.104Z,99985.97
2022-12-23T14:57:46.427Z,99984.44
2022-12-23T15:00:21.503Z,99974.16
2022-12-23T15:02:57.734Z,99970.78
2022-12-23T15:05:30.373Z,99967.31
2022-12-23T15:08:05.638Z,99963.28
2022-12-23T15:10:40.139Z,99940.88
2022-12-23T15:13:15.996Z,99960.25
2022-12-23T15:16:02.532Z,99933.03
2022-12-23T15:18:37.925Z,99937.44
2022-12-23T15:21:12.601Z,99934.91
2022-12-23T15:24:32.234Z,99922.75
2022-12-23T15:29:59.714Z,99901.72
2022-12-23T15:32:45.565Z,99897.25
2022-12-23T15:35:34.603Z,99922.75
2022-12-23T15:38:07.541Z,99907.97
2022-12-23T15:40:47.591Z,99910.38
2022-12-23T15:43:23.551Z,99904.50
2022-12-23T15:45:59.120Z,99901.13
2022-12-23T15:48:35.544Z,99912.59
2022-12-23T15:51:50.107Z,99921.75
2022-12-23T15:54:49.590Z,99897.66
2022-12-23T15:57:28.443Z,99916.84
2022-12-23T16:00:12.326Z,99911.81
2022-12-23T16:03:01.838Z,99931.94
2022-12-23T16:05:44.950Z,99942.06
2022-12-23T16:08:35.709Z,99933.56
2022-12-23T16:11:24.042Z,99930.56
2022-12-23T16:14:01.930Z,99921.25
